createdAt,value
2023-02-06T00:00:51.498Z,2.19
2023-02-06T00:01:51.477Z,2.22
2023-02-06T00:02:51.458Z,2.19
2023-02-06T00:03:51.429Z,2.12
2023-02-06T00:04:51.392Z,2.02
2023-02-06T00:05:51.414Z,2.09
2023-02-06T00:06:51.359Z,2.10
2023-02-06T00:07:51.354Z,2.17
2023-02-06T00:08:51.276Z,2.08
2023-02-06T00:09:51.256Z,2.17
2023-02-06T00:10:51.227Z,2.19
2023-02-06T00:11:51.195Z,2.10
2023-02-06T00:12:51.180Z,1.97
2023-02-06T00:13:51.146Z,1.97
2023-02-06T00:14:51.165Z,1.87
2023-02-06T00:15:51.136Z,1.91
2023-02-06T00:16:51.106Z,1.85
2023-02-06T00:17:51.054Z,1.75
2023-02-06T00:18:51.042Z,1.72
2023-02-06T00:19:51.000Z,1.72
2023-02-06T00:20:50.951Z,1.72
2023-02-06T00:21:50.970Z,1.60
2023-02-06T00:22:50.937Z,1.51
2023-02-06T00:23:50.893Z,1.47
2023-02-06T00:24:50.885Z,1.46
2023-02-06T00:25:50.842Z,1.39
2023-02-06T00:26:50.798Z,1.34
2023-02-06T00:27:50.900Z,1.28
2023-02-06T00:28:50.787Z,1.22
2023-02-06T00:29:50.790Z,1.22
2023-02-06T00:30:50.786Z,1.26
2023-02-06T00:31:50.758Z,1.16
2023-02-06T00:32:50.684Z,1.15
2023-02-06T00:33:50.625Z,1.22
2023-02-06T00:34:50.597Z,1.26
2023-02-06T00:35:50.553Z,1.26
2023-02-06T00:36:50.522Z,1.29
2023-02-06T00:37:50.499Z,1.29
2023-02-06T00:38:50.465Z,1.07
2023-02-06T00:39:50.451Z,1.07
2023-02-06T00:40:50.417Z,1.04
2023-02-06T00:41:50.430Z,0.90
2023-02-06T00:42:50.371Z,0.90
2023-02-06T00:43:50.344Z,0.94
2023-02-06T00:44:50.316Z,0.90
2023-02-06T00:45:50.288Z,1.03
2023-02-06T00:46:50.260Z,0.96
2023-02-06T00:47:50.249Z,1.00
2023-02-06T00:48:50.235Z,0.94
2023-02-06T00:49:50.210Z,0.90
2023-02-06T00:50:50.167Z,0.86
2023-02-06T00:51:50.175Z,0.90
2023-02-06T00:52:50.089Z,0.86
2023-02-06T00:53:51.220Z,0.78
2023-02-06T00:54:50.092Z,0.68
2023-02-06T00:55:50.014Z,0.53
2023-02-06T00:56:50.022Z,0.53
2023-02-06T00:57:49.959Z,0.49
2023-02-06T00:58:49.931Z,0.58
2023-02-06T00:59:49.915Z,0.53
2023-02-06T01:00:49.905Z,0.62
2023-02-06T01:01:49.969Z,0.57
2023-02-06T01:02:49.875Z,0.67
2023-02-06T01:03:49.853Z,0.61
2023-02-06T01:04:49.754Z,0.71
2023-02-06T01:05:49.803Z,0.71
2023-02-06T01:06:49.708Z,0.76
2023-02-06T01:07:49.726Z,0.57
2023-02-06T01:08:49.669Z,0.60
2023-02-06T01:09:49.686Z,0.52
2023-02-06T01:10:49.619Z,0.57
2023-02-06T01:11:49.616Z,0.42
2023-02-06T01:12:49.536Z,0.48
2023-02-06T01:13:49.595Z,0.42
2023-02-06T01:14:49.493Z,0.48
2023-02-06T01:15:51.092Z,0.45
2023-02-06T01:16:49.452Z,0.48
2023-02-06T01:17:49.406Z,0.57
2023-02-06T01:18:49.415Z,0.43
2023-02-06T01:19:49.392Z,0.48
2023-02-06T01:20:49.316Z,0.38
2023-02-06T01:21:49.301Z,0.43
2023-02-06T01:22:49.297Z,0.36
2023-02-06T01:23:49.245Z,0.41
2023-02-06T01:24:49.201Z,0.43
2023-02-06T01:25:49.200Z,0.45
2023-02-06T01:26:49.186Z,0.42
2023-02-06T01:27:49.157Z,0.41
2023-02-06T01:28:49.119Z,0.46
2023-02-06T01:29:49.086Z,0.46
2023-02-06T01:30:49.102Z,0.42
2023-02-06T01:31:49.020Z,0.48
2023-02-06T01:32:48.979Z,0.36
2023-02-06T01:33:49.000Z,0.31
2023-02-06T01:34:48.972Z,0.27
2023-02-06T01:35:48.958Z,0.27
2023-02-06T01:36:48.915Z,0.20
2023-02-06T01:37:48.888Z,0.25
2023-02-06T01:38:48.839Z,0.25
2023-02-06T01:39:48.829Z,0.25
2023-02-06T01:40:48.769Z,0.16
2023-02-06T01:41:48.757Z,0.25
2023-02-06T01:42:48.752Z,0.12
2023-02-06T01:43:48.702Z,0.09
2023-02-06T01:44:48.671Z,0.05
2023-02-06T01:45:48.635Z,-0.09
2023-02-06T01:46:48.649Z,-0.05
2023-02-06T01:47:48.600Z,0.07
2023-02-06T01:48:48.553Z,0.10
2023-02-06T01:49:48.543Z,0.24
2023-02-06T01:50:48.562Z,0.20
2023-02-06T01:51:48.562Z,0.23
2023-02-06T01:52:48.506Z,0.21
2023-02-06T01:53:48.437Z,0.21
2023-02-06T01:54:48.399Z,0.24
2023-02-06T01:55:48.389Z,0.24
2023-02-06T01:56:48.350Z,0.21
2023-02-06T01:57:48.319Z,0.24
2023-02-06T01:58:48.293Z,0.12
2023-02-06T01:59:48.271Z,0.07
2023-02-06T02:00:48.222Z,0.09
2023-02-06T02:01:48.369Z,-0.05
2023-02-06T02:02:48.162Z,0.09
2023-02-06T02:03:48.153Z,-0.06
2023-02-06T02:04:48.158Z,-0.01
2023-02-06T02:05:48.093Z,-0.01
2023-02-06T02:06:48.086Z,0.05
2023-02-06T02:07:48.086Z,0.10
2023-02-06T02:08:48.009Z,0.12
2023-02-06T02:09:47.984Z,0.12
2023-02-06T02:10:47.966Z,0.10
2023-02-06T02:11:47.944Z,0.20
2023-02-06T02:12:47.909Z,0.20
2023-02-06T02:13:47.890Z,0.21
2023-02-06T02:14:47.838Z,0.23
2023-02-06T02:15:47.825Z,0.18
2023-02-06T02:16:47.786Z,0.20
2023-02-06T02:17:47.787Z,0.25
2023-02-06T02:18:47.744Z,0.15
2023-02-06T02:19:47.719Z,0.16
2023-02-06T02:20:47.677Z,0.13
2023-02-06T02:21:47.688Z,0.12
2023-02-06T02:22:47.670Z,0.23
2023-02-06T02:23:47.626Z,0.21
2023-02-06T02:24:47.561Z,0.23
2023-02-06T02:25:47.552Z,0.27
2023-02-06T02:26:47.519Z,0.24
2023-02-06T02:27:47.604Z,0.28
2023-02-06T02:28:47.471Z,0.39
2023-02-06T02:29:47.451Z,0.45
2023-02-06T02:30:47.467Z,0.45
2023-02-06T02:31:47.418Z,0.60
2023-02-06T02:32:47.365Z,0.60
2023-02-06T02:33:47.373Z,0.61
2023-02-06T02:34:47.336Z,0.64
2023-02-06T02:35:47.285Z,0.75
2023-02-06T02:36:47.241Z,0.72
2023-02-06T02:37:47.223Z,0.88
2023-02-06T02:38:47.238Z,0.89
2023-02-06T02:39:47.195Z,0.92
2023-02-06T02:40:47.168Z,0.97
2023-02-06T02:41:47.125Z,1.00
2023-02-06T02:42:47.085Z,1.06
2023-02-06T02:43:47.115Z,1.01
2023-02-06T02:44:47.019Z,1.16
2023-02-06T02:45:47.063Z,1.14
2023-02-06T02:46:46.983Z,1.15
2023-02-06T02:47:46.954Z,1.18
2023-02-06T02:48:46.967Z,1.16
2023-02-06T02:49:46.908Z,1.26
2023-02-06T02:50:46.856Z,1.29
2023-02-06T02:51:46.831Z,1.26
2023-02-06T02:52:46.792Z,1.28
2023-02-06T02:53:46.779Z,1.34
2023-02-06T02:54:46.740Z,1.26
2023-02-06T02:55:46.821Z,1.37
2023-02-06T02:56:46.718Z,1.42
2023-02-06T02:57:46.697Z,1.34
2023-02-06T02:58:46.654Z,1.34
2023-02-06T02:59:46.621Z,1.39
2023-02-06T03:00:46.688Z,1.39
2023-02-06T03:01:46.557Z,1.42
2023-02-06T03:02:46.533Z,1.37
2023-02-06T03:03:46.516Z,1.39
2023-02-06T03:04:46.500Z,1.47
2023-02-06T03:05:46.464Z,1.50
2023-02-06T03:06:46.426Z,1.51
2023-02-06T03:07:46.398Z,1.44
2023-02-06T03:08:46.358Z,1.47
2023-02-06T03:09:46.442Z,1.57
2023-02-06T03:10:46.328Z,1.54
2023-02-06T03:11:46.296Z,1.47
2023-02-06T03:12:46.262Z,1.58
2023-02-06T03:13:46.245Z,1.54
2023-02-06T03:14:46.224Z,1.57
2023-02-06T03:15:46.244Z,1.57
2023-02-06T03:16:46.221Z,1.64
2023-02-06T03:17:46.126Z,1.72
2023-02-06T03:18:46.098Z,1.69
2023-02-06T03:19:46.093Z,1.78
2023-02-06T03:20:46.155Z,1.72
2023-02-06T03:21:46.040Z,1.68
2023-02-06T03:22:45.983Z,1.72
2023-02-06T03:23:45.965Z,1.72
2023-02-06T03:24:45.927Z,1.75
2023-02-06T03:25:45.908Z,1.72
2023-02-06T03:26:45.950Z,1.61
2023-02-06T03:27:45.916Z,1.58
2023-02-06T03:28:45.871Z,1.52
2023-02-06T03:29:45.872Z,1.55
2023-02-06T03:30:45.798Z,1.51
2023-02-06T03:31:45.783Z,1.50
2023-02-06T03:32:45.724Z,1.51
2023-02-06T03:33:45.735Z,1.57
2023-02-06T03:34:45.706Z,1.60
2023-02-06T03:35:45.670Z,1.57
2023-02-06T03:36:45.725Z,1.58
2023-02-06T03:37:45.607Z,1.62
2023-02-06T03:38:45.620Z,1.75
2023-02-06T03:39:45.547Z,1.72
2023-02-06T03:40:45.550Z,1.68
2023-02-06T03:41:45.474Z,1.75
2023-02-06T03:42:45.470Z,1.75
2023-02-06T03:43:45.465Z,1.76
2023-02-06T03:44:45.415Z,1.76
2023-02-06T03:45:45.423Z,1.90
2023-02-06T03:46:45.346Z,1.98
2023-02-06T03:47:45.328Z,1.89
2023-02-06T03:48:45.301Z,1.90
2023-02-06T03:49:45.272Z,1.82
2023-02-06T03:50:45.289Z,1.79
2023-02-06T03:51:45.245Z,1.85
2023-02-06T03:52:45.192Z,1.73
2023-02-06T03:53:45.195Z,1.69
2023-02-06T03:54:45.120Z,1.73
2023-02-06T03:55:45.119Z,1.73
2023-02-06T03:56:45.073Z,1.62
2023-02-06T03:57:45.056Z,1.58
2023-02-06T03:58:45.020Z,1.50
2023-02-06T03:59:45.077Z,1.51
2023-02-06T04:00:44.977Z,1.47
2023-02-06T04:01:44.950Z,1.51
2023-02-06T04:02:44.915Z,1.42
2023-02-06T04:03:44.908Z,1.40
2023-02-06T04:04:44.890Z,1.40
2023-02-06T04:05:44.854Z,1.46
2023-02-06T04:06:44.873Z,1.40
2023-02-06T04:07:44.804Z,1.40
2023-02-06T04:08:44.796Z,1.47
2023-02-06T04:09:44.739Z,1.57
2023-02-06T04:10:44.706Z,1.60
2023-02-06T04:11:44.694Z,1.43
2023-02-06T04:12:44.682Z,1.54
2023-02-06T04:13:44.625Z,1.54
2023-02-06T04:14:44.603Z,1.57
2023-02-06T04:15:44.636Z,1.64
2023-02-06T04:16:44.604Z,1.60
2023-02-06T04:17:58.821Z,1.55
2023-02-06T04:18:44.533Z,1.61
2023-02-06T04:19:44.460Z,1.64
2023-02-06T04:20:44.463Z,1.58
2023-02-06T04:21:44.423Z,1.72
2023-02-06T04:22:44.403Z,1.62
2023-02-06T04:23:44.380Z,1.65
2023-02-06T04:24:44.353Z,1.69
2023-02-06T04:25:44.307Z,1.61
2023-02-06T04:26:44.286Z,1.71
2023-02-06T04:27:44.291Z,1.64
2023-02-06T04:28:44.237Z,1.69
2023-02-06T04:29:44.228Z,1.69
2023-02-06T04:30:44.273Z,1.52
2023-02-06T04:31:44.241Z,1.64
2023-02-06T04:32:44.134Z,1.58
2023-02-06T04:33:44.101Z,1.62
2023-02-06T04:34:44.057Z,1.61
2023-02-06T04:35:44.028Z,1.58
2023-02-06T04:36:43.998Z,1.57
2023-02-06T04:37:43.986Z,1.57
2023-02-06T04:38:43.958Z,1.69
2023-02-06T04:39:43.935Z,1.69
2023-02-06T04:40:43.919Z,1.69
2023-02-06T04:41:43.871Z,1.69
2023-02-06T04:42:43.868Z,1.73
2023-02-06T04:43:43.830Z,1.72
2023-02-06T04:44:43.833Z,1.69
2023-02-06T04:45:43.759Z,1.72
2023-02-06T04:46:43.758Z,1.72
2023-02-06T04:47:43.736Z,1.71
2023-02-06T04:48:43.714Z,1.75
2023-02-06T04:49:43.680Z,1.76
2023-02-06T04:50:43.635Z,1.72
2023-02-06T04:51:43.638Z,1.73
2023-02-06T04:52:43.585Z,1.76
2023-02-06T04:53:43.539Z,1.78
2023-02-06T04:54:43.580Z,1.78
2023-02-06T04:55:43.499Z,1.89
2023-02-06T04:56:43.516Z,1.78
2023-02-06T04:57:43.443Z,1.80
2023-02-06T04:58:43.427Z,1.79
2023-02-06T04:59:43.396Z,1.87
2023-02-06T05:00:43.387Z,1.76
2023-02-06T05:01:43.361Z,1.89
2023-02-06T05:02:43.357Z,1.80
2023-02-06T05:03:43.270Z,1.89
2023-02-06T05:04:43.270Z,1.89
2023-02-06T05:05:43.247Z,1.93
2023-02-06T05:06:43.202Z,1.94
2023-02-06T05:07:43.205Z,1.93
2023-02-06T05:08:43.157Z,2.08
2023-02-06T05:09:43.221Z,1.97
2023-02-06T05:10:43.132Z,2.01
2023-02-06T05:11:43.075Z,2.01
2023-02-06T05:12:43.031Z,1.99
2023-02-06T05:13:43.039Z,2.08
2023-02-06T05:14:43.011Z,1.94
2023-02-06T05:15:43.008Z,1.90
2023-02-06T05:16:42.933Z,1.91
2023-02-06T05:17:42.928Z,1.87
2023-02-06T05:18:42.902Z,1.89
2023-02-06T05:19:42.931Z,1.94
2023-02-06T05:20:42.822Z,1.94
2023-02-06T05:21:42.905Z,1.87
2023-02-06T05:22:42.822Z,1.91
2023-02-06T05:23:42.818Z,1.94
2023-02-06T05:24:42.748Z,1.97
2023-02-06T05:25:42.697Z,2.02
2023-02-06T05:26:42.670Z,2.08
2023-02-06T05:27:42.717Z,2.09
2023-02-06T05:28:42.609Z,1.98
2023-02-06T05:29:42.606Z,2.10
2023-02-06T05:30:42.603Z,2.02
2023-02-06T05:31:42.648Z,2.01
2023-02-06T05:32:42.554Z,1.97
2023-02-06T05:33:42.470Z,1.91
2023-02-06T05:34:42.505Z,1.90
2023-02-06T05:35:42.454Z,1.91
2023-02-06T05:36:42.433Z,1.89
2023-02-06T05:37:42.385Z,1.89
2023-02-06T05:38:42.386Z,1.94
2023-02-06T05:39:42.311Z,1.90
2023-02-06T05:40:42.283Z,1.97
2023-02-06T05:41:42.290Z,1.98
2023-02-06T05:42:42.239Z,1.89
2023-02-06T05:43:42.222Z,1.97
2023-02-06T05:44:42.209Z,1.89
2023-02-06T05:45:42.146Z,1.90
2023-02-06T05:46:42.185Z,1.89
2023-02-06T05:47:42.129Z,1.98
2023-02-06T05:48:42.100Z,1.90
2023-02-06T05:49:42.039Z,1.89
2023-02-06T05:50:43.296Z,1.94
2023-02-06T05:51:41.999Z,1.91
2023-02-06T05:52:42.000Z,1.97
2023-02-06T05:53:41.996Z,1.89
2023-02-06T05:54:41.979Z,1.94
2023-02-06T05:55:41.914Z,1.90
2023-02-06T05:56:41.889Z,2.08
2023-02-06T05:57:41.828Z,1.99
2023-02-06T05:58:41.864Z,2.02
2023-02-06T05:59:41.802Z,2.06
2023-02-06T06:00:41.767Z,2.09
2023-02-06T06:01:41.733Z,2.08
2023-02-06T06:02:41.705Z,2.06
2023-02-06T06:03:41.683Z,2.02
2023-02-06T06:04:41.717Z,2.06
2023-02-06T06:05:41.635Z,1.98
2023-02-06T06:06:41.630Z,1.93
2023-02-06T06:07:41.587Z,1.87
2023-02-06T06:08:41.552Z,1.91
2023-02-06T06:09:41.511Z,1.94
2023-02-06T06:10:41.520Z,1.91
2023-02-06T06:11:41.505Z,1.91
2023-02-06T06:12:41.469Z,1.93
2023-02-06T06:13:41.449Z,1.89
2023-02-06T06:14:41.455Z,1.93
2023-02-06T06:15:41.436Z,1.83
2023-02-06T06:16:41.353Z,1.87
2023-02-06T06:17:41.324Z,1.87
2023-02-06T06:18:41.336Z,1.97
2023-02-06T06:19:41.265Z,1.89
2023-02-06T06:20:41.250Z,1.90
2023-02-06T06:21:41.197Z,1.87
2023-02-06T06:22:41.192Z,1.87
2023-02-06T06:23:41.275Z,1.91
2023-02-06T06:24:41.122Z,1.97
2023-02-06T06:25:41.086Z,2.06
2023-02-06T06:26:41.106Z,2.04
2023-02-06T06:27:41.056Z,2.04
2023-02-06T06:28:41.048Z,2.04
2023-02-06T06:29:41.011Z,2.08
2023-02-06T06:30:41.018Z,2.08
2023-02-06T06:31:41.105Z,2.08
2023-02-06T06:32:40.904Z,2.09
2023-02-06T06:33:40.911Z,2.01
2023-02-06T06:34:40.862Z,2.10
2023-02-06T06:35:40.850Z,1.94
2023-02-06T06:36:40.814Z,2.06
2023-02-06T06:37:40.777Z,1.97
2023-02-06T06:38:40.758Z,2.06
2023-02-06T06:39:40.744Z,2.06
2023-02-06T06:40:40.721Z,2.06
2023-02-06T06:41:40.655Z,2.04
2023-02-06T06:42:40.677Z,2.06
2023-02-06T06:43:40.632Z,2.06
2023-02-06T06:44:40.586Z,2.04
2023-02-06T06:45:40.580Z,2.04
2023-02-06T06:46:40.564Z,2.09
2023-02-06T06:47:40.517Z,2.02
2023-02-06T06:48:40.537Z,2.08
2023-02-06T06:49:40.453Z,2.12
2023-02-06T06:50:40.449Z,2.19
2023-02-06T06:51:40.398Z,2.22
2023-02-06T06:52:40.381Z,2.16
2023-02-06T06:53:40.501Z,2.12
2023-02-06T06:54:40.334Z,2.16
2023-02-06T06:55:40.294Z,2.13
2023-02-06T06:56:40.270Z,2.27
2023-02-06T06:57:40.269Z,2.30
2023-02-06T06:58:40.235Z,2.26
2023-02-06T06:59:40.195Z,2.28
2023-02-06T07:00:40.232Z,2.30
2023-02-06T07:01:40.154Z,2.17
2023-02-06T07:02:40.214Z,2.12
2023-02-06T07:03:40.114Z,2.26
2023-02-06T07:04:40.096Z,2.12
2023-02-06T07:05:40.035Z,2.16
2023-02-06T07:06:39.998Z,2.26
2023-02-06T07:07:40.034Z,2.19
2023-02-06T07:08:39.968Z,2.17
2023-02-06T07:09:39.938Z,2.17
2023-02-06T07:10:39.906Z,2.12
2023-02-06T07:11:40.828Z,2.15
2023-02-06T07:12:39.853Z,2.17
2023-02-06T07:13:39.819Z,2.15
2023-02-06T07:14:39.857Z,2.17
2023-02-06T07:15:39.781Z,2.17
2023-02-06T07:16:39.862Z,2.17
2023-02-06T07:17:39.715Z,2.22
2023-02-06T07:18:39.730Z,2.15
2023-02-06T07:19:39.656Z,2.23
2023-02-06T07:20:39.664Z,2.16
2023-02-06T07:21:39.607Z,2.22
2023-02-06T07:22:39.582Z,2.19
2023-02-06T07:23:39.556Z,2.15
2023-02-06T07:24:39.525Z,2.22
2023-02-06T07:25:39.506Z,2.16
2023-02-06T07:26:39.469Z,2.22
2023-02-06T07:27:39.550Z,2.17
2023-02-06T07:28:39.424Z,2.19
2023-02-06T07:29:39.402Z,2.19
2023-02-06T07:30:39.406Z,2.26
2023-02-06T07:31:39.433Z,2.26
2023-02-06T07:32:39.326Z,2.38
2023-02-06T07:33:39.292Z,2.30
2023-02-06T07:34:39.269Z,2.27
2023-02-06T07:35:39.235Z,2.35
2023-02-06T07:36:39.290Z,2.23
2023-02-06T07:37:39.227Z,2.30
2023-02-06T07:38:39.152Z,2.38
2023-02-06T07:39:39.137Z,2.23
2023-02-06T07:40:44.943Z,2.26
2023-02-06T07:41:39.086Z,2.33
2023-02-06T07:42:39.058Z,2.27
2023-02-06T07:43:39.057Z,2.20
2023-02-06T07:44:39.042Z,2.20
2023-02-06T07:45:39.437Z,2.23
2023-02-06T07:46:38.947Z,2.20
2023-02-06T07:47:38.916Z,2.22
2023-02-06T07:48:38.909Z,2.15
2023-02-06T07:49:38.892Z,2.16
2023-02-06T07:50:38.852Z,2.20
2023-02-06T07:51:38.845Z,2.20
2023-02-06T07:52:38.795Z,2.28
2023-02-06T07:53:38.775Z,2.26
2023-02-06T07:54:38.764Z,2.22
2023-02-06T07:55:39.154Z,2.28
2023-02-06T07:56:38.721Z,2.33
2023-02-06T07:57:38.671Z,2.23
2023-02-06T07:58:38.637Z,2.35
2023-02-06T07:59:38.644Z,2.35
2023-02-06T08:00:38.604Z,2.28
2023-02-06T08:01:38.559Z,2.44
2023-02-06T08:02:38.542Z,2.41
2023-02-06T08:03:38.492Z,2.40
2023-02-06T08:04:38.606Z,2.51
2023-02-06T08:05:38.686Z,2.46
2023-02-06T08:06:38.467Z,2.49
2023-02-06T08:07:38.479Z,2.59
2023-02-06T08:08:38.384Z,2.63
2023-02-06T08:09:38.340Z,2.74
2023-02-06T08:10:38.324Z,2.70
2023-02-06T08:11:38.290Z,2.70
2023-02-06T08:12:38.257Z,2.76
2023-02-06T08:13:38.382Z,2.82
2023-02-06T08:14:38.274Z,2.74
2023-02-06T08:15:38.631Z,2.79
2023-02-06T08:16:38.172Z,2.84
2023-02-06T08:17:38.147Z,2.85
2023-02-06T08:18:38.108Z,2.87
2023-02-06T08:19:38.086Z,2.92
2023-02-06T08:20:38.056Z,2.97
2023-02-06T08:21:38.056Z,2.97
2023-02-06T08:22:38.004Z,2.94
2023-02-06T08:23:38.001Z,3.03
2023-02-06T08:24:37.934Z,2.94
2023-02-06T08:25:38.320Z,2.97
2023-02-06T08:26:37.896Z,2.92
2023-02-06T08:27:37.873Z,2.89
2023-02-06T08:28:37.867Z,2.95
2023-02-06T08:29:37.825Z,2.92
2023-02-06T08:30:37.878Z,2.95
2023-02-06T08:31:37.887Z,2.97
2023-02-06T08:32:37.733Z,2.91
2023-02-06T08:33:37.764Z,2.91
2023-02-06T08:34:37.689Z,2.98
2023-02-06T08:35:37.949Z,3.05
2023-02-06T08:36:37.625Z,3.07
2023-02-06T08:37:37.609Z,3.07
2023-02-06T08:38:37.581Z,3.24
2023-02-06T08:39:37.605Z,3.31
2023-02-06T08:40:37.528Z,3.43
2023-02-06T08:41:37.511Z,3.54
2023-02-06T08:42:37.487Z,3.61
2023-02-06T08:43:37.463Z,3.68
2023-02-06T08:44:37.427Z,3.61
2023-02-06T08:45:37.656Z,3.67
2023-02-06T08:46:37.373Z,3.70
2023-02-06T08:47:37.386Z,3.65
2023-02-06T08:48:37.327Z,3.54
2023-02-06T08:49:37.306Z,3.61
2023-02-06T08:50:37.608Z,3.78
2023-02-06T08:51:37.273Z,3.78
2023-02-06T08:52:37.226Z,3.71
2023-02-06T08:53:37.192Z,3.68
2023-02-06T08:54:38.796Z,3.76
2023-02-06T08:55:37.201Z,3.82
2023-02-06T08:56:37.121Z,3.92
2023-02-06T08:57:37.095Z,3.86
2023-02-06T08:58:37.081Z,3.90
2023-02-06T08:59:37.038Z,3.94
2023-02-06T09:00:37.012Z,3.92
2023-02-06T09:01:37.038Z,4.00
2023-02-06T09:02:37.011Z,3.98
2023-02-06T09:03:37.072Z,3.94
2023-02-06T09:04:36.908Z,3.80
2023-02-06T09:05:37.309Z,3.78
2023-02-06T09:06:36.860Z,3.75
2023-02-06T09:07:36.827Z,3.60
2023-02-06T09:08:36.852Z,3.65
2023-02-06T09:09:36.790Z,3.65
2023-02-06T09:10:36.739Z,3.68
2023-02-06T09:11:36.730Z,3.54
2023-02-06T09:12:36.694Z,3.60
2023-02-06T09:13:36.699Z,3.46
2023-02-06T09:14:36.660Z,3.47
2023-02-06T09:15:37.203Z,3.42
2023-02-06T09:16:36.628Z,3.43
2023-02-06T09:17:36.586Z,3.53
2023-02-06T09:18:36.553Z,3.58
2023-02-06T09:19:36.559Z,3.57
2023-02-06T09:20:36.497Z,3.61
2023-02-06T09:21:36.512Z,3.57
2023-02-06T09:22:36.473Z,3.60
2023-02-06T09:23:36.420Z,3.57
2023-02-06T09:24:36.403Z,3.58
2023-02-06T09:25:36.707Z,3.60
2023-02-06T09:26:38.913Z,3.64
2023-02-06T09:27:36.312Z,3.64
2023-02-06T09:28:36.295Z,3.80
2023-02-06T09:29:36.265Z,3.70
2023-02-06T09:30:36.293Z,3.89
2023-02-06T09:31:36.255Z,3.83
2023-02-06T09:32:36.206Z,3.85
2023-02-06T09:33:36.162Z,3.90
2023-02-06T09:34:36.142Z,3.72
2023-02-06T09:35:36.582Z,3.79
2023-02-06T09:36:36.096Z,3.79
2023-02-06T09:37:36.048Z,3.89
2023-02-06T09:38:36.029Z,3.96
2023-02-06T09:39:36.003Z,4.18
2023-02-06T09:40:35.998Z,4.08
2023-02-06T09:41:35.949Z,4.12
2023-02-06T09:42:35.930Z,4.06
2023-02-06T09:43:35.910Z,4.18
2023-02-06T09:44:35.901Z,4.15
2023-02-06T09:45:36.262Z,4.36
2023-02-06T09:46:35.873Z,4.26
2023-02-06T09:47:35.801Z,4.34
2023-02-06T09:48:35.765Z,4.46
2023-02-06T09:49:35.751Z,4.54
2023-02-06T09:50:35.712Z,4.59
2023-02-06T09:51:35.714Z,4.84
2023-02-06T09:52:35.659Z,5.04
2023-02-06T09:53:35.634Z,5.31
2023-02-06T09:54:35.613Z,5.38
2023-02-06T09:55:35.916Z,5.07
2023-02-06T09:56:35.566Z,4.92
2023-02-06T09:57:35.567Z,4.89
2023-02-06T09:58:35.508Z,4.91
2023-02-06T09:59:35.496Z,5.05
2023-02-06T10:00:35.464Z,5.04
2023-02-06T10:01:35.490Z,5.01
2023-02-06T10:02:35.402Z,4.92
2023-02-06T10:03:35.402Z,4.95
2023-02-06T10:04:35.355Z,4.91
2023-02-06T10:05:35.715Z,4.96
2023-02-06T10:06:35.328Z,5.04
2023-02-06T10:07:35.408Z,5.09
2023-02-06T10:08:35.278Z,5.16
2023-02-06T10:09:35.257Z,5.22
2023-02-06T10:10:35.211Z,5.07
2023-02-06T10:11:35.201Z,5.30
2023-02-06T10:12:35.163Z,5.12
2023-02-06T10:13:35.135Z,5.16
2023-02-06T10:14:35.123Z,5.17
2023-02-06T10:15:35.567Z,5.13
2023-02-06T10:16:35.051Z,5.22
2023-02-06T10:17:35.082Z,5.09
2023-02-06T10:18:35.026Z,5.16
2023-02-06T10:19:35.060Z,5.22
2023-02-06T10:20:34.980Z,5.20
2023-02-06T10:21:34.974Z,5.19
2023-02-06T10:22:34.922Z,5.04
2023-02-06T10:23:34.931Z,5.09
2023-02-06T10:24:34.865Z,5.07
2023-02-06T10:25:35.018Z,5.05
2023-02-06T10:26:34.824Z,5.05
2023-02-06T10:27:34.786Z,4.96
2023-02-06T10:28:34.779Z,4.95
2023-02-06T10:29:34.819Z,5.05
2023-02-06T10:30:34.722Z,5.05
2023-02-06T10:31:34.871Z,5.01
2023-02-06T10:32:34.657Z,4.86
2023-02-06T10:33:34.665Z,4.99
2023-02-06T10:34:34.612Z,5.01
2023-02-06T10:35:35.140Z,5.13
2023-02-06T10:36:34.569Z,5.09
2023-02-06T10:37:34.570Z,5.13
2023-02-06T10:38:34.542Z,5.09
2023-02-06T10:39:34.509Z,5.01
2023-02-06T10:40:34.469Z,5.01
2023-02-06T10:41:34.456Z,5.04
2023-02-06T10:42:34.446Z,5.09
2023-02-06T10:43:34.436Z,5.01
2023-02-06T10:44:34.396Z,4.99
2023-02-06T10:45:34.768Z,4.96
2023-02-06T10:46:34.342Z,5.05
2023-02-06T10:47:34.303Z,4.96
2023-02-06T10:48:34.278Z,4.94
2023-02-06T10:49:34.242Z,4.92
2023-02-06T10:50:34.217Z,4.86
2023-02-06T10:51:34.222Z,4.89
2023-02-06T10:52:34.180Z,4.79
2023-02-06T10:53:34.146Z,4.94
2023-02-06T10:54:34.163Z,5.17
2023-02-06T10:55:34.097Z,5.30
2023-02-06T10:56:34.066Z,5.46
2023-02-06T10:57:34.041Z,5.82
2023-02-06T10:58:34.020Z,6.19
2023-02-06T10:59:33.994Z,6.43
2023-02-06T11:00:34.068Z,6.51
2023-02-06T11:01:34.001Z,6.63
2023-02-06T11:02:34.050Z,6.43
2023-02-06T11:03:33.927Z,6.50
2023-02-06T11:04:33.872Z,6.76
2023-02-06T11:05:33.855Z,6.77
2023-02-06T11:06:33.810Z,6.77
2023-02-06T11:07:33.808Z,6.54
2023-02-06T11:08:33.810Z,6.30
2023-02-06T11:09:33.743Z,6.19
2023-02-06T11:10:33.708Z,6.13
2023-02-06T11:11:33.736Z,6.04
2023-02-06T11:12:33.664Z,5.96
2023-02-06T11:13:33.650Z,5.96
2023-02-06T11:14:33.623Z,5.77
2023-02-06T11:15:33.599Z,5.63
2023-02-06T11:16:33.624Z,5.45
2023-02-06T11:17:33.564Z,5.60
2023-02-06T11:18:33.520Z,5.71
2023-02-06T11:19:33.498Z,5.67
2023-02-06T11:20:33.555Z,6.06
2023-02-06T11:21:33.476Z,6.09
2023-02-06T11:22:44.277Z,6.13
2023-02-06T11:23:33.402Z,6.32
2023-02-06T11:24:33.380Z,6.35
2023-02-06T11:25:33.357Z,6.06
2023-02-06T11:26:33.340Z,5.95
2023-02-06T11:27:33.339Z,5.95
2023-02-06T11:28:33.270Z,5.98
2023-02-06T11:29:33.242Z,5.92
2023-02-06T11:30:33.306Z,5.78
2023-02-06T11:31:33.227Z,5.75
2023-02-06T11:32:33.163Z,5.52
2023-02-06T11:33:33.158Z,5.55
2023-02-06T11:34:33.150Z,5.37
2023-02-06T11:35:33.123Z,5.35
2023-02-06T11:36:33.075Z,5.16
2023-02-06T11:37:33.047Z,5.13
2023-02-06T11:38:33.016Z,5.14
2023-02-06T11:39:33.013Z,5.46
2023-02-06T11:40:32.997Z,5.49
2023-02-06T11:41:32.963Z,5.57
2023-02-06T11:42:32.924Z,5.55
2023-02-06T11:43:32.906Z,5.67
2023-02-06T11:44:32.879Z,5.74
2023-02-06T11:45:32.902Z,5.96
2023-02-06T11:46:32.827Z,6.10
2023-02-06T11:47:32.813Z,6.65
2023-02-06T11:48:32.766Z,7.02
2023-02-06T11:49:32.745Z,6.97
2023-02-06T11:50:32.727Z,6.80
2023-02-06T11:51:32.720Z,6.36
2023-02-06T11:52:32.670Z,6.28
2023-02-06T11:53:32.653Z,6.56
2023-02-06T11:54:32.631Z,6.65
2023-02-06T11:55:32.592Z,6.79
2023-02-06T11:56:32.576Z,6.59
2023-02-06T11:57:32.563Z,6.33
2023-02-06T11:58:32.525Z,6.26
2023-02-06T11:59:32.524Z,6.65
2023-02-06T12:00:32.478Z,7.20
2023-02-06T12:01:32.456Z,7.50
2023-02-06T12:02:32.542Z,7.77
2023-02-06T12:03:32.438Z,8.02
2023-02-06T12:04:32.421Z,8.12
2023-02-06T12:05:32.362Z,8.18
2023-02-06T12:06:32.386Z,8.14
2023-02-06T12:07:32.322Z,7.85
2023-02-06T12:08:32.287Z,7.78
2023-02-06T12:09:32.298Z,7.72
2023-02-06T12:10:32.235Z,7.99
2023-02-06T12:11:32.244Z,7.90
2023-02-06T12:12:32.199Z,8.36
2023-02-06T12:13:32.170Z,8.39
2023-02-06T12:14:32.137Z,8.48
2023-02-06T12:15:45.983Z,8.58
2023-02-06T12:16:32.130Z,8.76
2023-02-06T12:17:32.112Z,8.91
2023-02-06T12:18:32.050Z,8.90
2023-02-06T12:19:32.022Z,9.06
2023-02-06T12:20:32.008Z,8.73
2023-02-06T12:21:31.980Z,8.55
2023-02-06T12:22:31.954Z,8.30
2023-02-06T12:23:31.934Z,8.15
2023-02-06T12:24:31.931Z,7.74
2023-02-06T12:25:31.894Z,7.59
2023-02-06T12:26:31.863Z,7.38
2023-02-06T12:27:31.846Z,7.32
2023-02-06T12:28:31.817Z,7.59
2023-02-06T12:29:31.803Z,8.15
2023-02-06T12:30:31.795Z,8.53
2023-02-06T12:31:31.905Z,8.58
2023-02-06T12:32:31.741Z,8.62
2023-02-06T12:33:31.699Z,8.53
2023-02-06T12:34:31.689Z,8.14
2023-02-06T12:35:31.704Z,7.89
2023-02-06T12:36:31.659Z,7.89
2023-02-06T12:37:31.638Z,7.55
2023-02-06T12:38:31.596Z,7.63
2023-02-06T12:39:31.575Z,7.97
2023-02-06T12:40:31.563Z,8.15
2023-02-06T12:41:31.577Z,8.14
2023-02-06T12:42:31.520Z,8.14
2023-02-06T12:43:31.500Z,7.93
2023-02-06T12:44:31.469Z,8.08
2023-02-06T12:45:31.444Z,8.11
2023-02-06T12:46:31.480Z,8.22
2023-02-06T12:47:31.402Z,8.44
2023-02-06T12:48:31.383Z,8.53
2023-02-06T12:49:31.352Z,8.54
2023-02-06T12:50:31.338Z,8.75
2023-02-06T12:51:31.320Z,8.79
2023-02-06T12:52:31.327Z,8.79
2023-02-06T12:53:31.449Z,8.57
2023-02-06T12:54:31.286Z,8.60
2023-02-06T12:55:31.229Z,8.63
2023-02-06T12:56:31.212Z,8.68
2023-02-06T12:57:31.177Z,9.06
2023-02-06T12:58:31.161Z,9.24
2023-02-06T12:59:31.139Z,9.28
2023-02-06T13:00:31.126Z,9.31
2023-02-06T13:01:34.260Z,9.34
2023-02-06T13:02:31.132Z,9.10
2023-02-06T13:03:31.052Z,8.75
2023-02-06T13:04:31.029Z,8.84
2023-02-06T13:05:31.030Z,8.66
2023-02-06T13:06:31.001Z,8.71
2023-02-06T13:07:33.928Z,8.86
2023-02-06T13:08:30.958Z,8.96
2023-02-06T13:09:30.948Z,9.01
2023-02-06T13:10:30.930Z,8.83
2023-02-06T13:11:30.894Z,8.78
2023-02-06T13:12:30.932Z,8.88
2023-02-06T13:13:30.858Z,9.09
2023-02-06T13:14:30.836Z,9.43
2023-02-06T13:15:30.863Z,9.21
2023-02-06T13:16:30.790Z,8.97
2023-02-06T13:17:30.785Z,8.83
2023-02-06T13:18:30.760Z,8.65